Time;durP1;ratioP1;P1;durP2;ratioP2;P2;SDS_P1;SDS_P2;PMS_P1;PMS_P2;Temp;Humidity;BMP_temperature;BMP_pressure;BME280_temperature;BME280_humidity;BME280_pressure;Samples;Min_cycle;Max_cycle;Signal;HPM_P1;HPM_P2
2023/10/23 00:00:42;;;;;;;0.70;0.45;;;22.10;58.90;;;;;;5084283;28;20036;-40
2023/10/23 00:03:08;;;;;;;1.60;0.40;;;22.10;59.00;;;;;;5087924;28;20047;-40
2023/10/23 00:05:34;;;;;;;0.90;0.40;;;22.10;59.00;;;;;;5091218;28;20111;-40
2023/10/23 00:08:00;;;;;;;0.75;0.52;;;22.10;59.10;;;;;;5084394;28;20051;-40
2023/10/23 00:10:27;;;;;;;0.57;0.40;;;22.10;59.10;;;;;;5090914;28;20025;-39
2023/10/23 00:12:53;;;;;;;1.15;0.45;;;22.00;59.20;;;;;;5085032;28;20032;-39
2023/10/23 00:15:19;;;;;;;0.80;0.50;;;22.00;59.10;;;;;;5092227;28;20032;-39
2023/10/23 00:17:45;;;;;;;0.93;0.50;;;22.00;58.90;;;;;;5093245;28;20066;-39
2023/10/23 00:20:12;;;;;;;1.05;0.70;;;22.00;59.00;;;;;;5089444;28;20494;-40
2023/10/23 00:22:38;;;;;;;0.77;0.50;;;22.00;59.10;;;;;;5099416;28;20036;-39
2023/10/23 00:25:04;;;;;;;1.00;0.60;;;22.00;59.10;;;;;;5098574;28;20277;-39
2023/10/23 00:27:30;;;;;;;1.00;0.60;;;21.90;59.00;;;;;;5083877;28;20443;-39
2023/10/23 00:29:56;;;;;;;1.00;0.47;;;21.90;59.00;;;;;;5086681;28;20024;-39
2023/10/23 00:32:23;;;;;;;1.08;0.50;;;21.90;59.00;;;;;;5087873;28;20043;-39
2023/10/23 00:34:49;;;;;;;0.70;0.60;;;21.90;59.10;;;;;;5085986;28;20079;-39
2023/10/23 00:37:15;;;;;;;0.57;0.40;;;21.90;59.10;;;;;;5089968;28;20101;-39
2023/10/23 00:39:41;;;;;;;0.65;0.60;;;21.80;59.00;;;;;;5085199;28;20036;-39
2023/10/23 00:42:07;;;;;;;0.80;0.50;;;21.80;59.10;;;;;;5083518;28;20049;-40
2023/10/23 00:44:33;;;;;;;1.05;0.60;;;21.80;59.10;;;;;;5083966;28;20043;-39
2023/10/23 00:46:59;;;;;;;1.50;0.63;;;21.80;59.10;;;;;;5097922;28;20035;-39
2023/10/23 00:49:26;;;;;;;1.00;0.50;;;21.70;59.10;;;;;;5090502;28;20043;-39
2023/10/23 00:51:52;;;;;;;0.90;0.60;;;21.70;59.20;;;;;;5099028;28;20052;-39
2023/10/23 00:54:18;;;;;;;0.70;0.55;;;21.70;59.20;;;;;;5093608;28;20036;-39
2023/10/23 00:56:44;;;;;;;0.77;0.43;;;21.70;59.20;;;;;;5100915;28;20016;-39
2023/10/23 00:59:10;;;;;;;1.25;0.50;;;21.70;59.20;;;;;;5090089;28;20032;-39
2023/10/23 01:01:36;;;;;;;0.80;0.60;;;21.70;59.20;;;;;;5099199;28;20066;-39
2023/10/23 01:04:04;;;;;;;2.28;0.60;;;21.70;59.30;;;;;;5096084;28;20017;-39
2023/10/23 01:06:31;;;;;;;0.90;0.50;;;21.60;59.20;;;;;;5085266;28;20037;-39
2023/10/23 01:08:57;;;;;;;0.98;0.55;;;21.60;59.30;;;;;;5090958;28;20024;-39
2023/10/23 01:11:23;;;;;;;1.83;0.68;;;21.60;59.30;;;;;;5079549;28;20087;-39
2023/10/23 01:13:49;;;;;;;0.73;0.50;;;21.60;59.30;;;;;;5085195;28;20063;-39
2023/10/23 01:16:16;;;;;;;1.00;0.70;;;21.60;59.30;;;;;;5088926;28;20039;-39
2023/10/23 01:18:42;;;;;;;0.40;0.40;;;21.50;59.40;;;;;;5099753;28;20047;-39
2023/10/23 01:21:08;;;;;;;0.90;0.50;;;21.50;59.40;;;;;;5094128;28;20039;-39
2023/10/23 01:23:36;;;;;;;1.00;0.40;;;21.50;59.40;;;;;;5100181;28;20036;-39
2023/10/23 01:26:02;;;;;;;0.68;0.45;;;21.50;59.40;;;;;;5093993;28;20028;-39
2023/10/23 01:28:29;;;;;;;0.82;0.55;;;21.50;59.50;;;;;;5101032;28;20032;-38
2023/10/23 01:30:55;;;;;;;1.25;0.60;;;21.50;59.50;;;;;;5086309;28;20059;-38
2023/10/23 01:33:21;;;;;;;1.27;0.77;;;21.40;59.50;;;;;;5085386;28;20047;-38
2023/10/23 01:35:47;;;;;;;0.70;0.60;;;21.40;59.50;;;;;;5094148;28;20051;-39
2023/10/23 01:38:14;;;;;;;1.13;0.60;;;21.40;59.60;;;;;;5098608;28;20500;-39
2023/10/23 01:40:40;;;;;;;1.00;0.50;;;21.30;59.70;;;;;;5101752;28;20158;-39
2023/10/23 01:43:06;;;;;;;0.93;0.52;;;21.30;59.70;;;;;;5105142;28;20048;-40
2023/10/23 01:45:32;;;;;;;0.70;0.65;;;21.30;59.70;;;;;;5104680;28;20028;-39
2023/10/23 01:47:58;;;;;;;0.93;0.50;;;21.30;59.70;;;;;;5097420;28;20076;-39
2023/10/23 01:50:24;;;;;;;1.73;0.50;;;21.30;59.80;;;;;;5104841;28;20749;-39
2023/10/23 01:52:51;;;;;;;1.02;0.60;;;21.30;59.80;;;;;;5103175;28;20032;-39
2023/10/23 01:55:17;;;;;;;0.60;0.50;;;21.20;59.80;;;;;;5104226;28;20032;-39
2023/10/23 01:57:43;;;;;;;0.80;0.53;;;21.20;59.80;;;;;;5103074;28;20060;-40
2023/10/23 02:00:10;;;;;;;2.15;0.82;;;21.20;59.80;;;;;;5104601;28;20089;-39
2023/10/23 02:02:36;;;;;;;1.05;0.68;;;21.20;59.90;;;;;;5103458;28;20123;-39
2023/10/23 02:05:03;;;;;;;1.53;0.73;;;21.10;59.90;;;;;;5099036;28;20033;-39
2023/10/23 02:07:29;;;;;;;1.08;0.60;;;21.10;60.00;;;;;;5100707;28;20315;-39
2023/10/23 02:09:56;;;;;;;1.27;0.63;;;21.10;60.10;;;;;;5096707;28;20032;-39
2023/10/23 02:12:23;;;;;;;;;;;21.10;60.10;;;;;;5104703;28;20035;-39
2023/10/23 02:14:52;;;;;;;1.50;0.68;;;21.10;60.30;;;;;;5096405;28;19916;-40
2023/10/23 02:17:19;;;;;;;0.50;0.50;;;21.00;60.20;;;;;;5104147;28;20044;-39
2023/10/23 02:19:45;;;;;;;1.10;0.63;;;21.00;60.20;;;;;;5094135;28;20550;-39
2023/10/23 02:22:12;;;;;;;1.00;0.70;;;21.00;60.30;;;;;;5103705;28;20044;-38
2023/10/23 02:24:38;;;;;;;1.17;0.85;;;21.00;60.30;;;;;;5095755;28;20033;-39
2023/10/23 02:27:04;;;;;;;1.17;0.70;;;20.90;60.20;;;;;;5097636;28;20039;-38
2023/10/23 02:29:30;;;;;;;1.35;0.75;;;20.90;60.50;;;;;;5101014;28;20020;-38
2023/10/23 02:31:56;;;;;;;1.33;0.70;;;20.90;60.40;;;;;;5099235;28;20562;-39
2023/10/23 02:34:22;;;;;;;0.70;0.60;;;20.90;60.50;;;;;;5102565;28;20040;-39
2023/10/23 02:36:48;;;;;;;0.65;0.60;;;20.90;60.50;;;;;;5093716;28;20039;-38
2023/10/23 02:39:14;;;;;;;1.33;0.75;;;20.80;60.40;;;;;;5091386;28;20085;-39
2023/10/23 02:41:41;;;;;;;0.90;0.80;;;20.80;60.50;;;;;;5094974;28;20042;-39
2023/10/23 02:44:08;;;;;;;0.82;0.60;;;20.80;60.60;;;;;;5086524;28;20029;-39
2023/10/23 02:46:35;;;;;;;1.95;0.85;;;20.80;60.60;;;;;;5086601;28;20396;-39
2023/10/23 02:49:02;;;;;;;;;;;20.80;60.80;;;;;;5092809;28;20129;-39
2023/10/23 02:51:28;;;;;;;1.67;0.77;;;20.70;60.60;;;;;;5100463;28;19908;-39
2023/10/23 02:53:55;;;;;;;1.30;0.75;;;20.70;60.60;;;;;;5086134;28;20029;-39
2023/10/23 02:56:21;;;;;;;0.73;0.60;;;20.70;60.70;;;;;;5092369;28;20024;-39
2023/10/23 02:58:47;;;;;;;0.57;0.50;;;20.70;60.80;;;;;;5085903;28;20709;-39
2023/10/23 03:01:25;;;;;;;1.27;0.70;;;20.60;60.80;;;;;;5094512;28;20037;-39
2023/10/23 03:03:51;;;;;;;1.15;0.90;;;20.60;60.80;;;;;;5095246;28;20020;-39
2023/10/23 03:06:17;;;;;;;2.20;0.93;;;20.60;60.90;;;;;;5095670;28;20059;-39
2023/10/23 03:08:43;;;;;;;1.17;0.90;;;20.60;61.00;;;;;;5100083;28;20088;-39
2023/10/23 03:11:10;;;;;;;1.35;0.82;;;20.60;60.90;;;;;;5085504;28;20104;-39
2023/10/23 03:13:36;;;;;;;1.20;0.80;;;20.60;60.90;;;;;;5086395;28;20062;-38
2023/10/23 03:16:02;;;;;;;1.10;0.80;;;20.50;61.00;;;;;;5088993;28;20024;-38
2023/10/23 03:18:29;;;;;;;1.10;0.80;;;20.50;61.00;;;;;;5095513;28;20032;-39
2023/10/23 03:21:01;;;;;;;1.23;0.80;;;20.50;61.10;;;;;;5088851;28;20082;-39
2023/10/23 03:23:31;;;;;;;1.33;1.00;;;20.50;61.10;;;;;;5088734;28;20033;-38
2023/10/23 03:25:57;;;;;;;1.40;0.80;;;20.50;61.90;;;;;;5092509;28;20032;-39
2023/10/23 03:28:24;;;;;;;0.90;0.70;;;20.40;61.30;;;;;;5091247;28;20028;-39
2023/10/23 03:30:50;;;;;;;1.60;1.00;;;20.40;61.20;;;;;;5087275;28;20111;-39
2023/10/23 03:33:16;;;;;;;1.20;0.70;;;20.40;61.20;;;;;;5086521;28;20062;-39
2023/10/23 03:35:43;;;;;;;1.15;0.80;;;20.40;61.40;;;;;;5093168;28;20044;-39
2023/10/23 03:38:09;;;;;;;2.35;1.00;;;20.40;61.30;;;;;;5091938;28;20052;-39
2023/10/23 03:40:35;;;;;;;1.20;0.88;;;20.40;61.40;;;;;;5092374;28;20050;-39
2023/10/23 03:43:01;;;;;;;1.73;1.00;;;20.30;61.30;;;;;;5088201;28;20135;-39
2023/10/23 03:45:27;;;;;;;1.38;0.88;;;20.30;61.50;;;;;;5095503;28;20028;-39
2023/10/23 03:47:53;;;;;;;1.27;1.00;;;20.30;61.50;;;;;;5095028;28;20083;-40
2023/10/23 03:50:19;;;;;;;1.20;1.00;;;20.30;61.50;;;;;;5103276;28;20063;-40
2023/10/23 03:52:45;;;;;;;1.52;1.10;;;20.30;61.60;;;;;;5093795;28;20041;-39
2023/10/23 03:55:12;;;;;;;1.35;1.10;;;20.20;61.50;;;;;;5095239;28;20028;-40
2023/10/23 03:57:38;;;;;;;1.38;0.88;;;20.20;62.30;;;;;;5100926;28;20028;-40
2023/10/23 04:00:05;;;;;;;2.13;0.90;;;20.20;61.50;;;;;;5102405;28;20036;-40
2023/10/23 04:02:31;;;;;;;2.45;0.80;;;20.20;61.60;;;;;;5091508;28;20052;-40
2023/10/23 04:04:57;;;;;;;2.60;0.80;;;20.20;61.60;;;;;;5097251;28;20052;-40
2023/10/23 04:07:24;;;;;;;1.30;0.80;;;20.20;61.70;;;;;;5096921;28;20058;-39
2023/10/23 04:09:50;;;;;;;1.63;0.98;;;20.10;61.60;;;;;;5093704;28;20052;-40
2023/10/23 04:12:16;;;;;;;1.10;0.88;;;20.10;61.70;;;;;;5094477;28;20060;-39
2023/10/23 04:14:46;;;;;;;1.23;0.80;;;20.10;61.70;;;;;;5087288;28;20029;-39
2023/10/23 04:17:12;;;;;;;1.42;0.98;;;20.10;61.80;;;;;;5091175;28;20385;-40
2023/10/23 04:19:39;;;;;;;1.00;0.90;;;20.10;61.80;;;;;;5099397;28;20114;-39
2023/10/23 04:22:05;;;;;;;0.98;0.80;;;20.00;61.80;;;;;;5088264;28;20032;-39
2023/10/23 04:24:31;;;;;;;1.23;0.88;;;20.00;61.80;;;;;;5094671;28;20036;-39
2023/10/23 04:26:57;;;;;;;1.55;0.70;;;20.00;61.90;;;;;;5101510;28;20020;-40
2023/10/23 04:29:23;;;;;;;1.08;0.75;;;20.00;61.90;;;;;;5099328;28;20034;-40
2023/10/23 04:31:49;;;;;;;0.80;0.77;;;20.00;61.90;;;;;;5090430;28;20036;-40
2023/10/23 04:34:15;;;;;;;1.48;0.80;;;20.00;61.90;;;;;;5101709;28;20032;-39
2023/10/23 04:36:41;;;;;;;1.55;0.90;;;20.00;62.00;;;;;;5098770;28;20031;-39
2023/10/23 04:39:08;;;;;;;1.23;0.80;;;20.00;62.00;;;;;;5101454;28;20054;-39
2023/10/23 04:41:34;;;;;;;1.02;0.90;;;19.90;62.00;;;;;;5094278;28;20050;-39
2023/10/23 04:44:00;;;;;;;1.38;1.02;;;19.90;62.00;;;;;;5097862;28;20058;-39
2023/10/23 04:46:26;;;;;;;1.75;1.00;;;19.90;62.10;;;;;;5091630;28;20028;-39
2023/10/23 04:48:52;;;;;;;1.60;1.17;;;19.90;62.10;;;;;;5091081;28;20057;-39
2023/10/23 04:51:18;;;;;;;1.90;0.98;;;19.80;62.00;;;;;;5090874;28;20029;-39
2023/10/23 04:53:45;;;;;;;1.48;0.95;;;19.80;62.10;;;;;;5084125;28;20028;-39
2023/10/23 04:56:11;;;;;;;2.92;1.13;;;19.80;62.20;;;;;;5095731;28;20036;-39
2023/10/23 04:58:38;;;;;;;3.00;0.90;;;19.80;62.20;;;;;;5099260;28;20043;-39
2023/10/23 05:01:04;;;;;;;1.55;0.85;;;19.80;62.30;;;;;;5084660;28;20819;-39
2023/10/23 05:03:31;;;;;;;1.10;1.00;;;19.80;62.30;;;;;;5086861;28;20036;-39
2023/10/23 05:05:57;;;;;;;1.70;1.10;;;19.70;62.20;;;;;;5091862;28;20055;-39
2023/10/23 05:08:24;;;;;;;1.13;0.80;;;19.80;62.30;;;;;;5084702;28;20028;-39
2023/10/23 05:10:50;;;;;;;1.70;1.00;;;19.70;62.30;;;;;;5098396;28;20032;-39
2023/10/23 05:13:16;;;;;;;2.00;0.95;;;19.70;62.30;;;;;;5106903;28;20028;-39
2023/10/23 05:15:42;;;;;;;1.33;1.00;;;19.70;62.30;;;;;;5095031;28;20040;-39
2023/10/23 05:18:09;;;;;;;2.00;1.02;;;19.70;62.30;;;;;;5097264;28;20044;-39
2023/10/23 05:20:36;;;;;;;1.80;1.05;;;19.70;63.10;;;;;;5097576;28;20032;-39
2023/10/23 05:23:03;;;;;;;;;;;19.60;62.30;;;;;;5091265;28;20087;-39
2023/10/23 05:25:29;;;;;;;1.55;1.20;;;19.60;62.40;;;;;;5090365;28;19943;-39
2023/10/23 05:27:55;;;;;;;2.60;1.20;;;19.60;62.50;;;;;;5094609;28;20047;-39
2023/10/23 05:30:21;;;;;;;1.30;0.95;;;19.60;62.50;;;;;;5087633;28;20054;-39
2023/10/23 05:32:47;;;;;;;3.17;1.00;;;19.60;62.50;;;;;;5098601;28;20043;-39
2023/10/23 05:35:14;;;;;;;1.40;0.90;;;19.60;62.60;;;;;;5090286;28;20039;-39
2023/10/23 05:37:40;;;;;;;1.60;1.17;;;19.60;62.60;;;;;;5097316;28;20508;-39
2023/10/23 05:40:07;;;;;;;1.63;1.15;;;19.50;62.50;;;;;;5098122;28;20127;-39
2023/10/23 05:42:33;;;;;;;1.90;1.02;;;19.50;62.60;;;;;;5090027;28;20048;-39
2023/10/23 05:45:00;;;;;;;1.88;1.17;;;19.50;62.60;;;;;;5087382;28;20032;-39
2023/10/23 05:47:26;;;;;;;1.20;0.90;;;19.50;62.60;;;;;;5087198;28;20047;-39
2023/10/23 05:49:52;;;;;;;1.60;1.27;;;19.50;62.60;;;;;;5104937;28;20062;-39
2023/10/23 05:52:19;;;;;;;1.20;1.00;;;19.40;62.60;;;;;;5100067;28;20035;-39
2023/10/23 05:54:45;;;;;;;1.85;1.05;;;19.40;62.70;;;;;;5096728;28;20284;-39
2023/10/23 05:57:11;;;;;;;1.17;1.00;;;19.40;62.70;;;;;;5099247;28;20032;-39
2023/10/23 05:59:37;;;;;;;2.03;1.27;;;19.40;62.70;;;;;;5094933;28;20492;-39
2023/10/23 06:02:03;;;;;;;2.05;1.00;;;19.40;62.80;;;;;;5105369;28;20031;-39
2023/10/23 06:04:29;;;;;;;1.20;1.08;;;19.40;62.80;;;;;;5091641;28;20063;-39
2023/10/23 06:06:56;;;;;;;1.67;0.90;;;19.40;62.80;;;;;;5086742;28;20141;-39
2023/10/23 06:09:22;;;;;;;2.15;1.00;;;19.30;62.80;;;;;;5086929;28;20036;-39
2023/10/23 06:11:48;;;;;;;2.28;1.20;;;19.30;62.80;;;;;;5089315;28;20040;-39
2023/10/23 06:14:14;;;;;;;1.63;1.27;;;19.30;62.90;;;;;;5091605;28;20082;-39
2023/10/23 06:16:41;;;;;;;1.15;1.00;;;19.30;63.00;;;;;;5095631;28;20084;-39
2023/10/23 06:19:07;;;;;;;1.70;1.30;;;19.30;63.00;;;;;;5103561;28;20051;-38
2023/10/23 06:21:33;;;;;;;1.60;1.20;;;19.20;62.90;;;;;;5095499;28;20395;-39
2023/10/23 06:23:59;;;;;;;1.10;1.00;;;19.20;63.00;;;;;;5092576;28;20032;-39
2023/10/23 06:26:28;;;;;;;1.98;1.13;;;19.20;63.10;;;;;;5092950;28;20055;-39
2023/10/23 06:28:55;;;;;;;1.60;1.20;;;19.20;63.10;;;;;;5102961;28;20032;-38
2023/10/23 06:31:22;;;;;;;1.58;1.00;;;19.20;63.10;;;;;;5093982;28;20029;-39
2023/10/23 06:33:48;;;;;;;1.55;0.95;;;19.20;63.10;;;;;;5102321;28;20028;-39
2023/10/23 06:36:14;;;;;;;1.30;1.00;;;19.20;63.10;;;;;;5096522;28;20036;-40
2023/10/23 06:38:40;;;;;;;2.92;1.00;;;19.20;63.10;;;;;;5100267;28;20036;-39
2023/10/23 06:41:07;;;;;;;1.85;1.20;;;19.10;63.10;;;;;;5104361;28;20027;-40
2023/10/23 06:43:34;;;;;;;1.58;1.05;;;19.10;63.20;;;;;;5095229;28;20036;-39
2023/10/23 06:46:00;;;;;;;1.70;1.20;;;19.10;63.10;;;;;;5090096;28;20721;-39
2023/10/23 06:48:26;;;;;;;2.80;1.27;;;19.10;63.20;;;;;;5096740;28;20115;-39
2023/10/23 06:50:54;;;;;;;1.80;1.20;;;19.00;63.20;;;;;;5093333;28;20033;-40
2023/10/23 06:53:20;;;;;;;2.30;1.30;;;19.00;63.20;;;;;;5099042;28;20035;-40
2023/10/23 06:55:54;;;;;;;1.65;1.38;;;19.00;63.20;;;;;;5095039;28;20037;-40
2023/10/23 06:58:20;;;;;;;2.33;1.23;;;19.00;63.20;;;;;;5101838;28;20044;-40
2023/10/23 07:00:47;;;;;;;1.52;1.00;;;19.00;63.20;;;;;;5095465;28;20032;-40
2023/10/23 07:03:13;;;;;;;1.63;1.20;;;19.00;63.30;;;;;;5096339;28;20040;-40
2023/10/23 07:05:40;;;;;;;1.93;1.33;;;19.00;63.30;;;;;;5096522;28;20028;-40
2023/10/23 07:08:06;;;;;;;1.70;1.23;;;18.90;63.30;;;;;;5102994;28;20036;-40
2023/10/23 07:10:36;;;;;;;2.22;1.40;;;18.90;63.30;;;;;;5102556;28;20063;-40
2023/10/23 07:13:02;;;;;;;1.80;1.30;;;18.90;63.40;;;;;;5092350;28;20040;-40
2023/10/23 07:15:29;;;;;;;2.33;1.50;;;18.90;63.40;;;;;;5096651;28;20029;-40
2023/10/23 07:17:55;;;;;;;2.20;1.38;;;18.90;63.40;;;;;;5100151;28;20033;-40
2023/10/23 07:20:21;;;;;;;1.60;1.20;;;18.90;63.40;;;;;;5093612;28;20037;-39
2023/10/23 07:22:47;;;;;;;1.60;1.17;;;18.80;63.40;;;;;;5099740;28;20024;-40
2023/10/23 07:25:14;;;;;;;1.85;1.10;;;18.80;63.50;;;;;;5097736;28;20155;-40
2023/10/23 07:27:40;;;;;;;1.35;1.05;;;18.80;63.50;;;;;;5102156;28;20056;-39
2023/10/23 07:30:07;;;;;;;1.50;1.20;;;18.80;63.50;;;;;;5102564;28;20048;-39
2023/10/23 07:32:35;;;;;;;1.50;1.38;;;18.80;63.60;;;;;;5094941;28;20028;-40
2023/10/23 07:35:03;;;;;;;2.13;1.50;;;18.80;63.60;;;;;;5099207;28;20032;-40
2023/10/23 07:37:30;;;;;;;2.25;1.30;;;18.70;63.60;;;;;;5102494;28;20043;-40
2023/10/23 07:39:57;;;;;;;1.77;1.40;;;18.70;63.60;;;;;;5101855;28;20104;-40
2023/10/23 07:42:24;;;;;;;1.55;1.15;;;18.70;63.70;;;;;;5102298;28;20102;-40
2023/10/23 07:44:50;;;;;;;1.75;1.35;;;18.70;63.70;;;;;;5101141;28;20063;-40
2023/10/23 07:47:17;;;;;;;1.25;1.15;;;18.70;63.70;;;;;;5102185;28;20028;-40
2023/10/23 07:49:44;;;;;;;1.55;1.40;;;18.70;64.20;;;;;;5091827;28;20028;-40
2023/10/23 07:52:10;;;;;;;1.42;1.23;;;18.70;63.80;;;;;;5096608;28;20479;-40
2023/10/23 07:54:36;;;;;;;2.67;1.52;;;18.60;63.70;;;;;;5100924;28;20043;-40
2023/10/23 07:57:03;;;;;;;1.83;1.38;;;18.60;63.70;;;;;;5092011;28;20358;-40
2023/10/23 07:59:29;;;;;;;2.00;1.55;;;18.60;63.70;;;;;;5095788;28;20043;-40
2023/10/23 08:01:56;;;;;;;1.50;1.30;;;18.60;63.80;;;;;;5095461;28;20057;-39
2023/10/23 08:04:22;;;;;;;1.88;1.33;;;18.60;63.80;;;;;;5092242;28;20033;-39
2023/10/23 08:06:48;;;;;;;1.92;1.42;;;18.60;63.80;;;;;;5100617;28;20432;-39
2023/10/23 08:09:14;;;;;;;2.30;1.50;;;18.60;63.90;;;;;;5102002;28;20039;-39
2023/10/23 08:11:41;;;;;;;3.80;1.27;;;18.50;63.90;;;;;;5094846;28;20036;-40
2023/10/23 08:14:07;;;;;;;2.28;1.35;;;18.50;63.80;;;;;;5102274;28;20040;-39
2023/10/23 08:16:33;;;;;;;3.10;1.50;;;18.50;63.90;;;;;;5093981;28;20029;-40
2023/10/23 08:18:59;;;;;;;1.48;1.27;;;18.50;63.90;;;;;;5101706;28;20123;-39
2023/10/23 08:21:28;;;;;;;2.08;1.45;;;18.50;64.00;;;;;;5101768;28;20060;-39
2023/10/23 08:23:56;;;;;;;2.20;1.52;;;18.50;64.00;;;;;;5098739;28;20028;-39
2023/10/23 08:26:22;;;;;;;1.58;1.45;;;18.50;64.00;;;;;;5097707;28;20032;-39
2023/10/23 08:28:49;;;;;;;1.52;1.30;;;18.40;64.00;;;;;;5100517;28;20031;-39
2023/10/23 08:31:15;;;;;;;2.05;1.35;;;18.40;64.10;;;;;;5094801;28;20533;-39
2023/10/23 08:33:42;;;;;;;2.17;1.60;;;18.40;64.10;;;;;;5093271;28;20055;-40
2023/10/23 08:36:08;;;;;;;2.75;1.45;;;18.40;64.10;;;;;;5088490;28;20098;-39
2023/10/23 08:38:35;;;;;;;1.60;1.23;;;18.40;64.10;;;;;;5098770;28;20072;-40
2023/10/23 08:41:04;;;;;;;1.95;1.50;;;18.30;64.10;;;;;;5091190;28;20024;-39
2023/10/23 08:43:31;;;;;;;1.50;1.35;;;18.30;64.20;;;;;;5090713;28;20046;-40
2023/10/23 08:45:59;;;;;;;1.67;1.25;;;18.30;64.20;;;;;;5098808;28;20020;-41
2023/10/23 08:48:25;;;;;;;3.85;1.60;;;18.30;64.20;;;;;;5097801;28;20054;-41
2023/10/23 08:50:51;;;;;;;1.88;1.45;;;18.30;64.20;;;;;;5086329;28;20069;-41
2023/10/23 08:53:18;;;;;;;1.70;1.40;;;18.30;64.20;;;;;;5088255;28;20046;-40
2023/10/23 08:55:44;;;;;;;1.92;1.50;;;18.30;64.30;;;;;;5082295;28;20562;-40
2023/10/23 08:58:11;;;;;;;1.70;1.33;;;18.20;64.30;;;;;;5069908;28;20504;-40
2023/10/23 09:00:37;;;;;;;2.47;1.60;;;18.20;64.30;;;;;;5083170;28;20039;-40
2023/10/23 09:03:04;;;;;;;2.85;1.48;;;18.20;64.30;;;;;;5094162;28;20096;-40
2023/10/23 09:05:30;;;;;;;3.90;1.70;;;18.20;64.30;;;;;;5096008;28;20027;-40
2023/10/23 09:07:56;;;;;;;2.13;1.50;;;18.20;64.40;;;;;;5094053;28;20039;-40
2023/10/23 09:10:22;;;;;;;2.35;1.75;;;18.20;64.50;;;;;;5101940;28;20118;-40
2023/10/23 09:12:54;;;;;;;2.20;1.50;;;18.10;64.40;;;;;;5091352;28;20646;-40
2023/10/23 09:15:26;;;;;;;2.97;1.60;;;18.10;64.40;;;;;;5090813;28;20472;-41
2023/10/23 09:17:53;;;;;;;2.50;1.80;;;18.10;64.40;;;;;;5091237;28;20024;-39
2023/10/23 09:20:21;;;;;;;2.65;1.52;;;18.10;64.40;;;;;;5094503;28;20049;-40
2023/10/23 09:22:50;;;;;;;3.38;1.60;;;18.10;64.50;;;;;;5092199;28;20042;-40
2023/10/23 09:25:17;;;;;;;2.13;1.77;;;18.10;64.50;;;;;;5090119;28;20047;-40
2023/10/23 09:27:44;;;;;;;1.65;1.50;;;18.10;64.60;;;;;;5092098;28;20440;-40
2023/10/23 09:30:10;;;;;;;3.17;1.50;;;18.00;64.50;;;;;;5089337;28;20044;-40
2023/10/23 09:32:37;;;;;;;2.00;1.60;;;18.00;64.60;;;;;;5095045;28;20087;-40
2023/10/23 09:35:04;;;;;;;3.93;1.57;;;18.00;64.60;;;;;;5086767;28;20079;-40
2023/10/23 09:37:30;;;;;;;2.58;1.70;;;18.00;64.60;;;;;;5085043;28;20304;-40
2023/10/23 09:40:09;;;;;;;3.30;1.80;;;18.00;64.70;;;;;;5097911;28;20020;-40
2023/10/23 09:42:35;;;;;;;2.58;1.80;;;17.90;64.60;;;;;;5097758;28;20048;-40
2023/10/23 09:45:03;;;;;;;1.83;1.55;;;17.90;64.70;;;;;;5089185;28;20052;-41
2023/10/23 09:47:29;;;;;;;3.42;1.58;;;17.90;64.70;;;;;;5087016;28;20097;-41
2023/10/23 09:49:56;;;;;;;2.60;1.45;;;17.90;64.70;;;;;;5091165;28;20354;-41
2023/10/23 09:52:23;;;;;;;2.33;1.55;;;17.90;64.70;;;;;;5096312;28;20028;-40
2023/10/23 09:54:50;;;;;;;1.88;1.48;;;17.90;64.80;;;;;;5094751;28;20032;-41
2023/10/23 09:57:17;;;;;;;2.27;1.53;;;17.80;64.80;;;;;;5096900;28;20085;-40
2023/10/23 09:59:46;;;;;;;;;;;17.90;64.80;;;;;;5088858;28;20044;-40
2023/10/23 10:02:13;;;;;;;2.42;2.00;;;17.90;64.90;;;;;;5091331;28;19915;-40
2023/10/23 10:04:57;;;;;;;;;;;17.80;64.80;;;;;;5096299;28;20081;-39
2023/10/23 10:07:40;;;;;;;3.95;1.80;;;17.80;64.80;;;;;;5099948;28;19912;-39
2023/10/23 10:10:07;;;;;;;2.40;1.70;;;17.80;64.90;;;;;;5089105;28;20169;-40
2023/10/23 10:12:37;;;;;;;1.63;1.50;;;17.80;64.90;;;;;;5088023;28;20025;-39
2023/10/23 10:15:05;;;;;;;2.35;1.70;;;17.70;64.80;;;;;;5086614;28;20036;-39
2023/10/23 10:17:32;;;;;;;2.13;1.50;;;17.80;65.00;;;;;;5093341;28;20036;-39
2023/10/23 10:19:58;;;;;;;2.17;1.40;;;17.80;65.00;;;;;;5093336;28;20035;-39
2023/10/23 10:22:28;;;;;;;1.90;1.33;;;17.70;65.00;;;;;;5091247;28;20720;-40
2023/10/23 10:24:54;;;;;;;2.95;1.90;;;17.70;65.00;;;;;;5095037;28;20028;-39
2023/10/23 10:27:20;;;;;;;2.08;1.55;;;17.70;65.00;;;;;;5091423;28;20029;-40
2023/10/23 10:29:46;;;;;;;2.13;1.70;;;17.70;65.10;;;;;;5094015;28;20039;-40
2023/10/23 10:32:13;;;;;;;3.47;1.45;;;17.70;65.10;;;;;;5098050;28;20726;-40
2023/10/23 10:34:52;;;;;;;2.58;1.27;;;17.60;65.10;;;;;;5093935;28;20027;-40
2023/10/23 10:37:20;;;;;;;2.25;1.80;;;17.70;65.10;;;;;;5090578;28;20056;-40
2023/10/23 10:39:48;;;;;;;2.00;1.60;;;17.60;65.10;;;;;;5067245;28;20042;-40
2023/10/23 10:42:35;;;;;;;1.77;1.48;;;17.60;65.10;;;;;;5086034;28;20044;-40
2023/10/23 10:45:11;;;;;;;2.13;1.63;;;17.60;65.10;;;;;;5093907;28;20032;-40
2023/10/23 10:48:04;;;;;;;3.45;1.70;;;17.60;65.30;;;;;;5092737;28;20121;-40
2023/10/23 10:50:38;;;;;;;2.33;1.60;;;17.60;65.30;;;;;;5090854;28;20045;-40
2023/10/23 10:53:05;;;;;;;2.10;1.70;;;17.60;65.30;;;;;;5093363;28;20035;-40
2023/10/23 10:55:32;;;;;;;1.77;1.63;;;17.50;65.20;;;;;;5092454;28;20037;-40
2023/10/23 10:57:59;;;;;;;3.05;1.65;;;17.50;65.30;;;;;;5095164;28;20043;-40
2023/10/23 11:00:32;;;;;;;1.83;1.40;;;17.50;65.30;;;;;;5086628;28;20086;-39
2023/10/23 11:02:58;;;;;;;2.30;1.70;;;17.50;65.30;;;;;;5095915;28;20039;-40
2023/10/23 11:05:24;;;;;;;3.57;1.40;;;17.50;65.30;;;;;;5096465;28;20073;-40
2023/10/23 11:07:51;;;;;;;2.03;1.40;;;17.50;65.30;;;;;;5095047;28;20038;-39
2023/10/23 11:10:19;;;;;;;1.45;1.10;;;17.50;65.70;;;;;;5095405;28;20024;-39
2023/10/23 11:12:46;;;;;;;2.05;1.45;;;17.50;66.00;;;;;;5099656;28;20028;-40
2023/10/23 11:15:13;;;;;;;2.40;1.50;;;17.60;65.80;;;;;;5098644;28;20032;-40
2023/10/23 11:17:43;;;;;;;1.92;1.48;;;17.60;65.80;;;;;;5093538;28;20043;-40
2023/10/23 11:20:10;;;;;;;1.70;1.40;;;17.60;65.80;;;;;;5090653;28;20051;-40
2023/10/23 11:22:44;;;;;;;3.08;1.38;;;17.50;65.70;;;;;;5096811;28;20084;-40
2023/10/23 11:25:11;;;;;;;2.08;1.55;;;17.50;65.70;;;;;;5092274;28;20055;-40
2023/10/23 11:27:37;;;;;;;2.25;1.50;;;17.50;65.70;;;;;;5085192;28;20036;-40
2023/10/23 11:30:05;;;;;;;1.58;1.25;;;17.50;65.70;;;;;;5099154;28;20494;-40
2023/10/23 11:32:31;;;;;;;1.17;1.02;;;17.50;66.00;;;;;;5091883;28;20463;-39
2023/10/23 11:35:05;;;;;;;1.88;1.17;;;17.60;66.20;;;;;;5091163;28;20081;-40
2023/10/23 11:37:38;;;;;;;2.13;1.45;;;17.60;66.10;;;;;;5094385;28;20032;-40
2023/10/23 11:40:08;;;;;;;1.98;1.52;;;17.60;65.90;;;;;;5084815;28;20105;-40
2023/10/23 11:42:47;;;;;;;2.22;1.50;;;17.60;66.00;;;;;;5084836;28;20155;-40
2023/10/23 11:45:15;;;;;;;1.25;1.15;;;17.60;66.00;;;;;;5094444;28;20119;-40
2023/10/23 11:47:41;;;;;;;2.47;1.40;;;17.50;65.90;;;;;;5101045;28;20032;-40
2023/10/23 11:50:12;;;;;;;1.73;1.15;;;17.50;65.90;;;;;;5091897;28;20062;-40
2023/10/23 11:52:44;;;;;;;1.33;1.10;;;17.40;65.90;;;;;;5092509;28;20047;-39
2023/10/23 11:55:12;;;;;;;1.20;1.10;;;17.50;66.10;;;;;;5102459;28;20039;-40
2023/10/23 11:57:42;;;;;;;1.60;1.20;;;17.60;66.30;;;;;;5092736;28;20032;-40
2023/10/23 12:00:11;;;;;;;1.42;1.20;;;17.60;66.20;;;;;;5098317;28;20044;-40
2023/10/23 12:02:41;;;;;;;2.33;1.30;;;17.60;66.10;;;;;;5095990;28;20028;-40
2023/10/23 12:05:12;;;;;;;1.52;1.20;;;17.60;66.10;;;;;;5092029;28;20036;-40
2023/10/23 12:07:47;;;;;;;1.67;1.25;;;17.60;66.10;;;;;;5098921;28;20031;-40
2023/10/23 12:10:14;;;;;;;1.50;1.33;;;17.50;66.10;;;;;;5101861;28;20056;-40
2023/10/23 12:12:41;;;;;;;1.40;1.30;;;17.50;66.00;;;;;;5100404;28;20095;-40
2023/10/23 12:15:10;;;;;;;1.63;1.33;;;17.50;66.00;;;;;;5091197;28;20120;-40
2023/10/23 12:17:37;;;;;;;1.95;1.17;;;17.50;66.20;;;;;;5091883;28;20037;-40
2023/10/23 12:20:07;;;;;;;1.88;1.42;;;17.60;66.40;;;;;;5087692;28;20087;-40
2023/10/23 12:22:37;;;;;;;1.63;1.15;;;17.60;66.20;;;;;;5095216;28;20033;-40
2023/10/23 12:25:04;;;;;;;2.85;1.17;;;17.60;66.10;;;;;;5095098;28;20035;-41
2023/10/23 12:27:34;;;;;;;2.45;1.40;;;17.60;66.10;;;;;;5094564;28;20025;-40
2023/10/23 12:30:01;;;;;;;1.80;1.13;;;17.60;66.10;;;;;;5094068;28;20028;-40
2023/10/23 12:32:28;;;;;;;1.83;1.23;;;17.60;66.20;;;;;;5101170;28;20028;-40
2023/10/23 12:34:57;;;;;;;1.10;1.00;;;17.50;66.10;;;;;;5096855;28;20091;-40
2023/10/23 12:37:26;;;;;;;1.10;1.00;;;17.50;66.10;;;;;;5090261;28;20039;-41
2023/10/23 12:39:54;;;;;;;1.30;1.05;;;17.50;66.20;;;;;;5093612;28;20103;-41
2023/10/23 12:42:20;;;;;;;1.13;1.02;;;17.60;66.40;;;;;;5101278;28;20083;-40
2023/10/23 12:44:48;;;;;;;1.20;1.00;;;17.60;66.20;;;;;;5100733;28;20032;-40
2023/10/23 12:47:14;;;;;;;;;;;17.60;66.10;;;;;;5094947;28;20036;-40